createdAt,value
2023-08-29T00:00:04.449Z,17.90
2023-08-29T00:01:04.390Z,18.30
2023-08-29T00:02:04.462Z,18.20
2023-08-29T00:03:04.452Z,18.80
2023-08-29T00:04:04.406Z,19.60
2023-08-29T00:05:04.403Z,19.50
2023-08-29T00:06:04.380Z,21.30
2023-08-29T00:07:04.384Z,21.70
2023-08-29T00:08:04.644Z,22.00
2023-08-29T00:09:04.353Z,22.40
2023-08-29T00:10:04.340Z,22.90
2023-08-29T00:11:04.314Z,22.30
2023-08-29T00:12:04.332Z,22.30
2023-08-29T00:13:04.303Z,22.10
2023-08-29T00:14:04.259Z,22.10
2023-08-29T00:15:04.284Z,21.80
2023-08-29T00:16:04.396Z,21.90
2023-08-29T00:17:04.282Z,21.20
2023-08-29T00:18:04.705Z,22.10
2023-08-29T00:19:04.235Z,22.10
2023-08-29T00:20:04.199Z,22.20
2023-08-29T00:21:04.233Z,22.50
2023-08-29T00:22:04.194Z,22.20
2023-08-29T00:23:04.236Z,22.00
2023-08-29T00:24:04.175Z,22.20
2023-08-29T00:25:04.189Z,22.50
2023-08-29T00:26:04.146Z,21.60
2023-08-29T00:27:04.161Z,22.00
2023-08-29T00:28:04.392Z,20.90
2023-08-29T00:29:04.141Z,21.30
2023-08-29T00:30:04.089Z,21.20
2023-08-29T00:31:04.091Z,20.20
2023-08-29T00:32:04.120Z,19.90
2023-08-29T00:33:04.157Z,20.20
2023-08-29T00:34:04.064Z,20.20
2023-08-29T00:35:04.016Z,20.70
2023-08-29T00:36:04.012Z,19.80
2023-08-29T00:37:04.049Z,20.00
2023-08-29T00:38:04.481Z,18.00
2023-08-29T00:39:04.004Z,16.90
2023-08-29T00:40:04.002Z,17.30
2023-08-29T00:41:03.990Z,18.20
2023-08-29T00:42:03.966Z,18.40
2023-08-29T00:43:04.099Z,18.60
2023-08-29T00:44:03.988Z,18.90
2023-08-29T00:45:03.948Z,18.00
2023-08-29T00:46:03.945Z,18.60
2023-08-29T00:47:03.957Z,18.00
2023-08-29T00:48:04.676Z,18.10
2023-08-29T00:49:03.919Z,18.50
2023-08-29T00:50:03.888Z,17.90
2023-08-29T00:51:03.887Z,17.70
2023-08-29T00:52:03.853Z,18.00
2023-08-29T00:53:03.876Z,17.10
2023-08-29T00:54:03.886Z,17.20
2023-08-29T00:55:03.857Z,18.20
2023-08-29T00:56:03.826Z,18.40
2023-08-29T00:57:03.823Z,17.60
2023-08-29T00:58:04.363Z,17.70
2023-08-29T00:59:03.844Z,17.80
2023-08-29T01:00:03.781Z,16.90
2023-08-29T01:01:03.789Z,16.90
2023-08-29T01:02:03.785Z,16.60
2023-08-29T01:03:03.821Z,15.50
2023-08-29T01:04:03.881Z,14.60
2023-08-29T01:05:03.725Z,13.80
2023-08-29T01:06:03.712Z,13.60
2023-08-29T01:07:03.715Z,14.40
2023-08-29T01:08:03.858Z,14.40
2023-08-29T01:09:03.747Z,15.20
2023-08-29T01:10:03.710Z,15.30
2023-08-29T01:11:03.686Z,14.50
2023-08-29T01:13:13.860Z,13.90
2023-08-29T01:14:14.839Z,14.10
2023-08-29T01:15:14.795Z,14.80
2023-08-29T01:16:14.850Z,15.10
2023-08-29T01:17:14.780Z,14.90
2023-08-29T01:18:14.873Z,14.20
2023-08-29T01:19:14.771Z,11.50
2023-08-29T01:20:14.742Z,11.80
2023-08-29T01:21:14.751Z,11.40
2023-08-29T01:22:14.730Z,12.10
2023-08-29T01:23:15.653Z,12.60
2023-08-29T01:24:14.750Z,12.50
2023-08-29T01:25:14.705Z,12.40
2023-08-29T01:26:15.221Z,12.80
2023-08-29T01:27:14.706Z,12.80
2023-08-29T01:28:14.684Z,12.00
2023-08-29T01:29:14.698Z,12.00
2023-08-29T01:30:14.675Z,12.30
2023-08-29T01:31:14.710Z,11.00
2023-08-29T01:32:14.645Z,10.90
2023-08-29T01:33:14.639Z,10.40
2023-08-29T01:34:14.617Z,11.00
2023-08-29T01:35:14.580Z,11.10
2023-08-29T01:36:14.608Z,10.90
2023-08-29T01:37:14.564Z,11.00
2023-08-29T01:38:14.588Z,11.10
2023-08-29T01:39:14.571Z,10.70
2023-08-29T01:40:14.561Z,11.20
2023-08-29T01:41:14.548Z,11.00
2023-08-29T01:42:14.518Z,10.90
2023-08-29T01:43:14.526Z,11.90
2023-08-29T01:44:14.521Z,10.40
2023-08-29T01:45:14.531Z,10.60
2023-08-29T01:46:14.551Z,10.20
2023-08-29T01:47:14.476Z,9.80
2023-08-29T01:48:14.483Z,8.60
2023-08-29T01:49:14.474Z,8.60
2023-08-29T01:50:14.484Z,9.90
2023-08-29T01:51:14.419Z,8.90
2023-08-29T01:52:14.448Z,9.40
2023-08-29T01:53:14.444Z,9.00
2023-08-29T01:54:14.443Z,9.50
2023-08-29T01:55:14.400Z,7.90
2023-08-29T01:56:14.403Z,9.10
2023-08-29T01:57:14.381Z,8.90
2023-08-29T01:58:14.398Z,9.40
2023-08-29T01:59:14.428Z,9.50
2023-08-29T02:00:14.362Z,8.90
2023-08-29T02:02:14.322Z,9.20
2023-08-29T02:03:14.305Z,8.90
2023-08-29T02:04:14.358Z,8.90
2023-08-29T02:05:14.327Z,9.60
2023-08-29T02:06:14.285Z,9.60
2023-08-29T02:07:14.298Z,9.90
2023-08-29T02:08:14.316Z,9.80
2023-08-29T02:09:14.261Z,9.70
2023-08-29T02:10:14.291Z,10.40
2023-08-29T02:11:14.270Z,10.40
2023-08-29T02:12:14.281Z,10.10
2023-08-29T02:13:14.226Z,10.60
2023-08-29T02:14:14.188Z,10.80
2023-08-29T02:15:14.225Z,11.50
2023-08-29T02:16:14.273Z,11.20
2023-08-29T02:17:14.206Z,11.10
2023-08-29T02:18:14.238Z,12.30
2023-08-29T02:19:14.171Z,11.30
2023-08-29T02:20:14.174Z,11.60
2023-08-29T02:21:14.157Z,11.30
2023-08-29T02:22:14.134Z,11.30
2023-08-29T02:23:14.091Z,11.80
2023-08-29T02:24:14.090Z,11.70
2023-08-29T02:25:14.091Z,12.20
2023-08-29T02:26:14.056Z,12.00
2023-08-29T02:27:14.066Z,12.40
2023-08-29T02:28:14.039Z,12.50
2023-08-29T02:29:14.048Z,13.10
2023-08-29T02:30:14.069Z,12.60
2023-08-29T02:31:14.057Z,14.10
2023-08-29T02:32:14.009Z,13.40
2023-08-29T02:33:13.991Z,13.30
2023-08-29T02:34:13.970Z,13.40
2023-08-29T02:35:14.032Z,14.20
2023-08-29T02:36:13.983Z,14.60
2023-08-29T02:37:13.965Z,14.60
2023-08-29T02:38:13.934Z,14.80
2023-08-29T02:39:13.931Z,14.60
2023-08-29T02:40:13.943Z,14.30
2023-08-29T02:41:13.904Z,15.10
2023-08-29T02:42:13.934Z,15.40
2023-08-29T02:43:13.909Z,15.60
2023-08-29T02:44:13.898Z,14.70
2023-08-29T02:45:13.886Z,15.60
2023-08-29T02:46:13.891Z,15.00
2023-08-29T02:47:13.877Z,15.30
2023-08-29T02:48:13.899Z,15.90
2023-08-29T02:49:13.837Z,15.20
2023-08-29T02:50:13.818Z,15.60
2023-08-29T02:51:13.853Z,15.00
2023-08-29T02:52:13.784Z,15.10
2023-08-29T02:53:13.794Z,16.10
2023-08-29T02:54:13.802Z,16.40
2023-08-29T02:55:13.778Z,16.30
2023-08-29T02:56:13.757Z,16.30
2023-08-29T02:57:13.769Z,15.90
2023-08-29T02:58:13.734Z,16.20
2023-08-29T02:59:13.765Z,16.80
2023-08-29T03:00:13.702Z,17.00
2023-08-29T03:01:13.903Z,16.10
2023-08-29T03:02:13.670Z,16.70
2023-08-29T03:03:13.764Z,16.40
2023-08-29T03:04:13.700Z,17.10
2023-08-29T03:05:13.662Z,17.50
2023-08-29T03:06:13.661Z,17.60
2023-08-29T03:07:13.638Z,17.30
2023-08-29T03:08:13.626Z,17.20
2023-08-29T03:09:13.611Z,18.50
2023-08-29T03:10:13.626Z,17.40
2023-08-29T03:11:13.642Z,17.20
2023-08-29T03:12:13.568Z,17.20
2023-08-29T03:13:13.570Z,17.20
2023-08-29T03:14:13.571Z,17.30
2023-08-29T03:15:13.543Z,16.90
2023-08-29T03:16:13.614Z,17.90
2023-08-29T03:17:13.517Z,17.70
2023-08-29T03:18:13.501Z,17.10
2023-08-29T03:19:13.524Z,18.00
2023-08-29T03:20:13.508Z,17.20
2023-08-29T03:21:13.499Z,18.40
2023-08-29T03:22:13.479Z,18.60
2023-08-29T03:23:13.482Z,18.80
2023-08-29T03:24:13.466Z,19.00
2023-08-29T03:25:13.462Z,18.50
2023-08-29T03:26:13.475Z,18.80
2023-08-29T03:27:13.443Z,18.80
2023-08-29T03:28:13.450Z,18.90
2023-08-29T03:29:13.436Z,18.80
2023-08-29T03:30:13.432Z,18.00
2023-08-29T03:31:13.410Z,18.80
2023-08-29T03:32:13.431Z,19.30
2023-08-29T03:33:13.411Z,18.50
2023-08-29T03:34:13.333Z,18.70
2023-08-29T03:35:13.340Z,17.30
2023-08-29T03:36:13.329Z,16.60
2023-08-29T03:37:13.363Z,15.80
2023-08-29T03:38:13.326Z,14.30
2023-08-29T03:39:13.303Z,13.90
2023-08-29T03:40:13.310Z,14.10
2023-08-29T03:41:13.313Z,14.10
2023-08-29T03:42:13.295Z,14.60
2023-08-29T03:43:13.264Z,14.70
2023-08-29T03:44:13.278Z,14.50
2023-08-29T03:45:13.275Z,12.40
2023-08-29T03:46:13.272Z,11.90
2023-08-29T03:47:13.243Z,11.20
2023-08-29T03:48:23.839Z,11.40
2023-08-29T03:49:13.202Z,11.30
2023-08-29T03:50:13.155Z,9.80
2023-08-29T03:51:13.192Z,8.90
2023-08-29T03:52:13.207Z,8.80
2023-08-29T03:53:13.160Z,9.30
2023-08-29T03:54:13.142Z,8.50
2023-08-29T03:55:13.121Z,8.30
2023-08-29T03:56:13.171Z,8.30
2023-08-29T03:57:13.114Z,8.70
2023-08-29T03:58:13.116Z,8.10
2023-08-29T03:59:13.071Z,8.30
2023-08-29T04:00:13.098Z,8.50
2023-08-29T04:01:13.107Z,8.30
2023-08-29T04:02:13.070Z,8.30
2023-08-29T04:03:13.267Z,8.70
2023-08-29T04:04:13.235Z,7.70
2023-08-29T04:05:13.227Z,7.00
2023-08-29T04:06:13.008Z,7.20
2023-08-29T04:07:13.038Z,6.20
2023-08-29T04:08:13.007Z,6.50
2023-08-29T04:09:12.965Z,6.00
2023-08-29T04:10:13.005Z,5.60
2023-08-29T04:11:13.004Z,6.10
2023-08-29T04:12:12.945Z,5.60
2023-08-29T04:13:12.925Z,5.40
2023-08-29T04:14:12.953Z,4.30
2023-08-29T04:15:12.900Z,4.70
2023-08-29T04:16:12.955Z,4.70
2023-08-29T04:17:12.914Z,4.30
2023-08-29T04:18:12.986Z,5.00
2023-08-29T04:19:12.865Z,4.50
2023-08-29T04:20:12.885Z,4.50
2023-08-29T04:21:12.841Z,4.90
2023-08-29T04:22:12.895Z,5.20
2023-08-29T04:23:12.850Z,5.30
2023-08-29T04:24:12.837Z,5.10
2023-08-29T04:25:12.811Z,4.90
2023-08-29T04:26:12.775Z,5.20
2023-08-29T04:27:12.855Z,5.50
2023-08-29T04:28:12.746Z,6.00
2023-08-29T04:29:12.764Z,5.90
2023-08-29T04:30:12.779Z,5.60
2023-08-29T04:31:12.790Z,5.60
2023-08-29T04:32:12.756Z,5.40
2023-08-29T04:33:12.763Z,5.90
2023-08-29T04:34:12.736Z,6.20
2023-08-29T04:35:12.735Z,6.10
2023-08-29T04:36:12.700Z,5.80
2023-08-29T04:37:12.726Z,6.40
2023-08-29T04:38:12.710Z,6.00
2023-08-29T04:39:12.679Z,6.00
2023-08-29T04:40:12.677Z,6.10
2023-08-29T04:41:12.644Z,6.20
2023-08-29T04:42:12.658Z,6.10
2023-08-29T04:43:12.684Z,4.70
2023-08-29T04:44:12.627Z,4.30
2023-08-29T04:45:12.635Z,5.20
2023-08-29T04:46:12.644Z,5.60
2023-08-29T04:47:12.660Z,4.50
2023-08-29T04:48:12.621Z,4.60
2023-08-29T04:49:12.560Z,4.30
2023-08-29T04:50:12.542Z,4.80
2023-08-29T04:51:12.572Z,4.50
2023-08-29T04:52:12.559Z,4.70
2023-08-29T04:53:12.526Z,4.20
2023-08-29T04:54:12.500Z,4.70
2023-08-29T04:55:12.504Z,4.60
2023-08-29T04:56:12.508Z,5.30
2023-08-29T04:57:12.492Z,5.70
2023-08-29T04:58:12.488Z,4.30
2023-08-29T04:59:12.475Z,4.40
2023-08-29T05:00:12.469Z,4.80
2023-08-29T05:01:12.468Z,4.90
2023-08-29T05:02:12.478Z,4.40
2023-08-29T05:03:12.488Z,4.30
2023-08-29T05:04:12.405Z,4.00
2023-08-29T05:05:12.404Z,4.60
2023-08-29T05:06:12.407Z,4.00
2023-08-29T05:07:12.366Z,4.20
2023-08-29T05:08:12.433Z,4.40
2023-08-29T05:09:12.405Z,4.10
2023-08-29T05:10:12.338Z,3.90
2023-08-29T05:11:12.345Z,3.40
2023-08-29T05:12:12.351Z,3.20
2023-08-29T05:13:12.315Z,3.00
2023-08-29T05:14:12.331Z,3.00
2023-08-29T05:15:12.279Z,2.30
2023-08-29T05:16:12.313Z,2.70
2023-08-29T05:17:12.300Z,2.60
2023-08-29T05:18:12.335Z,2.60
2023-08-29T05:19:12.254Z,2.30
2023-08-29T05:20:12.238Z,2.00
2023-08-29T05:21:12.222Z,1.70
2023-08-29T05:22:12.201Z,1.50
2023-08-29T05:23:12.256Z,1.50
2023-08-29T05:24:12.221Z,1.20
2023-08-29T05:25:12.198Z,1.10
2023-08-29T05:26:13.511Z,1.20
2023-08-29T05:27:12.179Z,1.60
2023-08-29T05:28:12.184Z,1.70
2023-08-29T05:29:12.159Z,1.80
2023-08-29T05:30:12.133Z,2.00
2023-08-29T05:31:12.160Z,2.40
2023-08-29T05:32:12.128Z,3.00
2023-08-29T05:33:12.155Z,3.10
2023-08-29T05:34:12.089Z,3.30
2023-08-29T05:35:12.084Z,3.80
2023-08-29T05:36:12.060Z,4.40
2023-08-29T05:37:12.055Z,4.80
2023-08-29T05:38:12.060Z,5.50
2023-08-29T05:39:12.034Z,5.80
2023-08-29T05:40:12.012Z,5.90
2023-08-29T05:41:12.026Z,6.10
2023-08-29T05:42:12.005Z,5.50
2023-08-29T05:43:12.019Z,5.80
2023-08-29T05:44:12.011Z,5.40
2023-08-29T05:45:12.013Z,5.10
2023-08-29T05:46:11.990Z,5.00
2023-08-29T05:47:11.982Z,4.20
2023-08-29T05:48:12.032Z,3.10
2023-08-29T05:49:11.924Z,3.00
2023-08-29T05:50:11.904Z,2.70
2023-08-29T05:51:11.910Z,2.40
2023-08-29T05:52:11.910Z,2.40
2023-08-29T05:53:11.937Z,1.80
2023-08-29T05:54:11.873Z,1.50
2023-08-29T05:55:11.894Z,1.60
2023-08-29T05:56:11.864Z,1.30
2023-08-29T05:57:11.880Z,1.30
2023-08-29T05:58:11.847Z,1.20
2023-08-29T05:59:11.841Z,1.00
2023-08-29T06:00:11.814Z,0.80
2023-08-29T06:01:11.839Z,0.80
2023-08-29T06:02:11.803Z,0.80
2023-08-29T06:03:11.934Z,0.80
2023-08-29T06:04:11.806Z,0.80
2023-08-29T06:05:11.775Z,0.80
2023-08-29T06:06:11.771Z,0.60
2023-08-29T06:07:11.729Z,0.70
2023-08-29T06:08:19.310Z,0.70
2023-08-29T06:09:11.818Z,0.70
2023-08-29T06:10:11.708Z,0.60
2023-08-29T06:11:11.694Z,0.70
2023-08-29T06:12:11.713Z,0.60
2023-08-29T06:13:11.672Z,0.50
2023-08-29T06:14:11.710Z,0.70
2023-08-29T06:15:11.689Z,0.60
2023-08-29T06:16:11.717Z,0.60
2023-08-29T06:17:11.659Z,0.40
2023-08-29T06:18:11.674Z,0.40
2023-08-29T06:19:11.655Z,0.50
2023-08-29T06:20:11.626Z,0.50
2023-08-29T06:21:11.606Z,0.50
2023-08-29T06:22:13.089Z,0.50
2023-08-29T06:23:11.606Z,0.50
2023-08-29T06:24:11.668Z,0.60
2023-08-29T06:25:11.549Z,0.50
2023-08-29T06:26:11.544Z,0.50
2023-08-29T06:27:11.518Z,0.50
2023-08-29T06:28:11.547Z,0.50
2023-08-29T06:29:11.571Z,0.50
2023-08-29T06:30:11.510Z,0.40
2023-08-29T06:31:11.531Z,0.40
2023-08-29T06:32:11.479Z,0.40
2023-08-29T06:33:11.492Z,0.40
2023-08-29T06:34:11.519Z,0.40
2023-08-29T06:35:11.473Z,0.40
2023-08-29T06:36:11.435Z,0.30
2023-08-29T06:37:11.438Z,0.50
2023-08-29T06:38:11.445Z,0.50
2023-08-29T06:39:11.427Z,0.40
2023-08-29T06:40:11.455Z,0.50
2023-08-29T06:41:11.415Z,0.50
2023-08-29T06:42:11.392Z,0.40
2023-08-29T06:43:11.339Z,0.50
2023-08-29T06:44:11.374Z,0.50
2023-08-29T06:45:11.413Z,0.50
2023-08-29T06:46:11.364Z,0.60
2023-08-29T06:47:11.335Z,0.40
2023-08-29T06:48:11.710Z,0.40
2023-08-29T06:49:11.303Z,0.40
2023-08-29T06:50:11.330Z,0.40
2023-08-29T06:51:11.336Z,0.40
2023-08-29T06:52:11.274Z,0.40
2023-08-29T06:53:11.295Z,0.40
2023-08-29T06:54:11.269Z,0.40
2023-08-29T06:55:11.276Z,0.40
2023-08-29T06:56:11.250Z,0.40
2023-08-29T06:57:11.275Z,0.50
2023-08-29T06:58:11.226Z,0.40
2023-08-29T06:59:11.197Z,0.40
2023-08-29T07:00:11.264Z,0.40
2023-08-29T07:01:11.222Z,0.40
2023-08-29T07:02:11.162Z,0.40
2023-08-29T07:03:11.256Z,0.40
2023-08-29T07:04:11.161Z,0.40
2023-08-29T07:05:11.172Z,0.40
2023-08-29T07:06:11.123Z,0.40
2023-08-29T07:07:11.150Z,0.30
2023-08-29T07:08:11.142Z,0.30
2023-08-29T07:09:11.123Z,0.40
2023-08-29T07:10:11.117Z,0.30
2023-08-29T07:11:11.118Z,0.40
2023-08-29T07:12:11.110Z,0.30
2023-08-29T07:13:11.111Z,0.50
2023-08-29T07:14:11.072Z,0.40
2023-08-29T07:15:11.059Z,0.40
2023-08-29T07:16:11.140Z,0.40
2023-08-29T07:17:11.270Z,0.40
2023-08-29T07:18:11.201Z,0.50
2023-08-29T07:19:11.004Z,0.50
2023-08-29T07:20:10.987Z,0.50
2023-08-29T07:21:11.003Z,0.50
2023-08-29T07:22:23.423Z,0.30
2023-08-29T07:23:10.954Z,0.40
2023-08-29T07:24:10.969Z,0.40
2023-08-29T07:25:10.960Z,0.50
2023-08-29T07:26:10.983Z,0.50
2023-08-29T07:27:10.958Z,0.50
2023-08-29T07:28:10.953Z,0.50
2023-08-29T07:29:10.915Z,0.40
2023-08-29T07:30:10.878Z,0.80
2023-08-29T07:31:10.947Z,0.50
2023-08-29T07:32:10.864Z,0.50
2023-08-29T07:33:10.923Z,0.50
2023-08-29T07:34:10.842Z,0.40
2023-08-29T07:35:10.851Z,0.40
2023-08-29T07:36:10.836Z,0.60
2023-08-29T07:37:10.826Z,0.40
2023-08-29T07:38:10.871Z,0.50
2023-08-29T07:39:10.815Z,0.50
2023-08-29T07:40:10.822Z,0.50
2023-08-29T07:41:10.821Z,0.50
2023-08-29T07:42:10.794Z,0.40
2023-08-29T07:43:10.770Z,0.50
2023-08-29T07:44:10.739Z,0.50
2023-08-29T07:45:10.724Z,0.60
2023-08-29T07:46:10.777Z,0.50
2023-08-29T07:47:15.563Z,0.50
2023-08-29T07:48:11.279Z,0.50
2023-08-29T07:49:10.699Z,0.50
2023-08-29T07:50:10.693Z,0.50
2023-08-29T07:51:10.662Z,0.60
2023-08-29T07:52:10.819Z,0.60
2023-08-29T07:53:10.652Z,0.60
2023-08-29T07:54:10.668Z,0.60
2023-08-29T07:55:10.665Z,0.70
2023-08-29T07:56:10.657Z,0.60
2023-08-29T07:57:10.653Z,0.60
2023-08-29T07:58:10.609Z,0.60
2023-08-29T07:59:10.583Z,0.70
2023-08-29T08:00:10.570Z,0.70
2023-08-29T08:01:10.534Z,0.60
2023-08-29T08:02:10.603Z,0.70
2023-08-29T08:03:10.569Z,0.60
2023-08-29T08:04:10.574Z,0.60
2023-08-29T08:05:10.546Z,0.70
2023-08-29T08:06:10.501Z,0.60
2023-08-29T08:07:10.550Z,0.60
2023-08-29T08:08:10.492Z,0.60
2023-08-29T08:09:10.509Z,0.50
2023-08-29T08:10:10.508Z,0.60
2023-08-29T08:11:10.462Z,0.60
2023-08-29T08:12:10.483Z,0.60
2023-08-29T08:13:10.449Z,0.60
2023-08-29T08:14:10.433Z,0.60
2023-08-29T08:15:10.422Z,0.60
2023-08-29T08:16:10.478Z,0.60
2023-08-29T08:17:10.430Z,0.60
2023-08-29T08:18:10.600Z,0.60
2023-08-29T08:19:10.408Z,0.60
2023-08-29T08:20:10.434Z,0.60
2023-08-29T08:21:10.326Z,0.60
2023-08-29T08:22:10.380Z,0.60
2023-08-29T08:23:10.345Z,0.60
2023-08-29T08:24:10.319Z,0.60
2023-08-29T08:25:10.330Z,0.70
2023-08-29T08:26:10.305Z,0.50
2023-08-29T08:27:10.319Z,0.60
2023-08-29T08:28:10.317Z,0.60
2023-08-29T08:29:10.297Z,0.60
2023-08-29T08:30:10.296Z,0.70
2023-08-29T08:31:10.271Z,0.50
2023-08-29T08:32:10.309Z,0.60
2023-08-29T08:33:10.228Z,0.70
2023-08-29T08:34:10.219Z,0.60
2023-08-29T08:35:10.201Z,0.50
2023-08-29T08:36:10.228Z,0.50
2023-08-29T08:37:10.222Z,0.50
2023-08-29T08:38:10.168Z,0.60
2023-08-29T08:39:10.172Z,0.60
2023-08-29T08:40:10.178Z,0.60
2023-08-29T08:41:10.137Z,0.60
2023-08-29T08:42:10.190Z,0.60
2023-08-29T08:43:10.154Z,0.60
2023-08-29T08:44:10.167Z,0.60
2023-08-29T08:45:10.094Z,0.50
2023-08-29T08:46:10.113Z,0.70
2023-08-29T08:47:10.134Z,0.60
2023-08-29T08:48:10.404Z,0.70
2023-08-29T08:49:10.100Z,0.60
2023-08-29T08:50:10.193Z,0.60
2023-08-29T08:51:10.027Z,0.50
2023-08-29T08:52:10.081Z,0.50
2023-08-29T08:53:10.002Z,0.60
2023-08-29T08:54:10.010Z,0.50
2023-08-29T08:55:10.030Z,0.60
2023-08-29T08:56:09.995Z,0.50
2023-08-29T08:57:11.927Z,0.60
2023-08-29T08:58:09.966Z,0.60
2023-08-29T08:59:09.936Z,0.60
2023-08-29T09:00:09.944Z,0.70
2023-08-29T09:01:10.013Z,0.60
2023-08-29T09:02:09.953Z,0.50
2023-08-29T09:03:09.999Z,0.70
2023-08-29T09:04:09.925Z,0.60
2023-08-29T09:05:11.056Z,0.70
2023-08-29T09:06:13.725Z,0.60
2023-08-29T09:07:09.882Z,0.50
2023-08-29T09:08:09.897Z,0.60
2023-08-29T09:09:09.836Z,0.60
2023-08-29T09:10:09.841Z,0.60
2023-08-29T09:11:09.851Z,0.80
2023-08-29T09:12:09.851Z,0.70
2023-08-29T09:13:09.807Z,0.70
2023-08-29T09:14:11.608Z,0.70
2023-08-29T09:15:09.781Z,0.70
2023-08-29T09:16:09.787Z,0.60
2023-08-29T09:17:09.811Z,0.70
2023-08-29T09:18:10.131Z,0.80
2023-08-29T09:19:09.727Z,0.70
2023-08-29T09:20:09.716Z,0.70
2023-08-29T09:21:09.725Z,0.70
2023-08-29T09:22:09.732Z,0.70
2023-08-29T09:23:09.707Z,0.90
2023-08-29T09:24:09.668Z,0.70
2023-08-29T09:25:09.647Z,0.80
2023-08-29T09:26:09.677Z,0.90
2023-08-29T09:27:09.681Z,0.80
2023-08-29T09:28:10.002Z,0.80
2023-08-29T09:29:09.635Z,0.80
2023-08-29T09:30:09.646Z,0.80
2023-08-29T09:31:09.650Z,0.80
2023-08-29T09:32:09.614Z,0.80
2023-08-29T09:33:09.687Z,0.90
2023-08-29T09:34:09.579Z,1.00
2023-08-29T09:35:09.575Z,0.90
2023-08-29T09:36:09.578Z,0.90
2023-08-29T09:37:09.531Z,0.90
2023-08-29T09:38:09.571Z,0.80
2023-08-29T09:39:09.521Z,0.80
2023-08-29T09:40:26.017Z,1.00
2023-08-29T09:41:09.514Z,1.00
2023-08-29T09:42:09.518Z,0.90
2023-08-29T09:43:09.558Z,0.90
2023-08-29T09:44:09.478Z,1.00
2023-08-29T09:45:09.468Z,0.90
2023-08-29T09:46:09.543Z,0.80
2023-08-29T09:47:09.437Z,0.90
2023-08-29T09:48:09.915Z,0.90
2023-08-29T09:49:09.466Z,0.90
2023-08-29T09:50:09.445Z,0.90
2023-08-29T09:51:09.410Z,1.10
2023-08-29T09:52:09.396Z,0.90
2023-08-29T09:53:09.431Z,1.00
2023-08-29T09:54:09.413Z,1.00
2023-08-29T09:55:09.400Z,1.00
2023-08-29T09:56:09.438Z,0.90
2023-08-29T09:57:09.361Z,1.00
2023-08-29T09:58:09.614Z,1.00
2023-08-29T09:59:09.381Z,1.00
2023-08-29T10:00:09.311Z,0.90
2023-08-29T10:01:09.371Z,1.00
2023-08-29T10:02:09.405Z,1.00
2023-08-29T10:03:09.578Z,1.00
2023-08-29T10:04:09.343Z,1.00
2023-08-29T10:05:09.235Z,1.00
2023-08-29T10:06:09.299Z,0.80
2023-08-29T10:07:09.258Z,1.00
2023-08-29T10:08:09.504Z,1.00
2023-08-29T10:09:09.271Z,1.00
2023-08-29T10:10:09.233Z,1.00
2023-08-29T10:11:09.236Z,0.90
2023-08-29T10:12:09.207Z,0.90
2023-08-29T10:13:09.200Z,0.90
2023-08-29T10:14:09.290Z,0.90
2023-08-29T10:15:09.180Z,0.90
2023-08-29T10:16:09.148Z,0.80
2023-08-29T10:17:17.568Z,0.90
2023-08-29T10:18:09.915Z,0.90
2023-08-29T10:19:09.129Z,1.10
2023-08-29T10:20:09.098Z,0.90
2023-08-29T10:21:09.113Z,0.80
2023-08-29T10:22:09.108Z,0.80
2023-08-29T10:23:09.088Z,0.80
2023-08-29T10:24:09.089Z,0.90
2023-08-29T10:25:09.100Z,1.00
2023-08-29T10:26:09.041Z,0.90
2023-08-29T10:27:09.026Z,0.90
2023-08-29T10:28:09.283Z,0.90
2023-08-29T10:29:09.013Z,0.90
2023-08-29T10:30:09.039Z,0.90
2023-08-29T10:31:09.005Z,1.00
2023-08-29T10:32:08.987Z,1.00
2023-08-29T10:33:09.098Z,0.90
2023-08-29T10:34:08.985Z,0.90
2023-08-29T10:35:08.998Z,0.90
2023-08-29T10:36:08.961Z,0.90
2023-08-29T10:37:08.945Z,0.90
2023-08-29T10:38:10.554Z,0.90
2023-08-29T10:39:08.943Z,0.80
2023-08-29T10:40:08.925Z,0.90
2023-08-29T10:41:08.907Z,0.80
2023-08-29T10:42:08.908Z,0.90
2023-08-29T10:43:08.884Z,0.90
2023-08-29T10:44:08.863Z,0.90
2023-08-29T10:45:08.903Z,0.80
2023-08-29T10:46:08.860Z,0.90
2023-08-29T10:47:08.834Z,0.80
2023-08-29T10:48:09.293Z,0.80
2023-08-29T10:49:08.812Z,0.80
2023-08-29T10:50:08.785Z,0.80
2023-08-29T10:51:08.831Z,0.80
2023-08-29T10:52:08.764Z,0.90
2023-08-29T10:53:08.751Z,0.80
2023-08-29T10:54:08.764Z,0.80
2023-08-29T10:55:08.761Z,0.80
2023-08-29T10:56:08.773Z,0.80
2023-08-29T10:57:08.760Z,0.80
2023-08-29T10:58:08.759Z,0.70
2023-08-29T10:59:08.683Z,0.80
2023-08-29T11:00:08.714Z,0.90
2023-08-29T11:01:08.806Z,0.80
2023-08-29T11:02:08.654Z,0.70
2023-08-29T11:03:08.718Z,0.80
2023-08-29T11:04:08.708Z,0.90
2023-08-29T11:05:08.688Z,0.90
2023-08-29T11:06:08.708Z,0.80
2023-08-29T11:07:08.646Z,0.80
2023-08-29T11:08:08.651Z,0.80
2023-08-29T11:09:08.597Z,0.80
2023-08-29T11:10:08.617Z,0.80
2023-08-29T11:11:08.619Z,0.60
2023-08-29T11:12:08.619Z,0.70
2023-08-29T11:13:08.572Z,0.70
2023-08-29T11:14:08.577Z,0.80
2023-08-29T11:15:10.753Z,0.80
2023-08-29T11:16:08.560Z,0.80
2023-08-29T11:17:08.568Z,0.90
2023-08-29T11:18:08.810Z,0.80
2023-08-29T11:19:08.504Z,0.70
2023-08-29T11:20:08.499Z,0.60
2023-08-29T11:21:08.521Z,0.70
2023-08-29T11:22:08.464Z,0.60
2023-08-29T11:23:08.451Z,0.70
2023-08-29T11:25:08.439Z,0.60
2023-08-29T11:26:08.444Z,0.70
2023-08-29T11:27:08.456Z,0.70
2023-08-29T11:28:08.753Z,0.70
2023-08-29T11:29:08.421Z,0.60
2023-08-29T11:30:22.241Z,0.70
2023-08-29T11:31:08.435Z,0.70
2023-08-29T11:32:08.404Z,0.60
2023-08-29T11:33:08.356Z,0.70
2023-08-29T11:34:10.935Z,0.70
2023-08-29T11:35:08.368Z,0.70
2023-08-29T11:36:08.381Z,0.60
2023-08-29T11:37:08.390Z,0.70
2023-08-29T11:38:08.595Z,0.60
2023-08-29T11:39:08.363Z,0.80
2023-08-29T11:40:10.115Z,0.80
2023-08-29T11:41:15.256Z,0.70
2023-08-29T11:42:17.439Z,0.80
2023-08-29T11:43:48.283Z,0.80
2023-08-29T11:45:02.345Z,0.80
2023-08-29T11:45:45.957Z,0.80
2023-08-29T11:46:08.290Z,0.80
2023-08-29T11:47:08.265Z,0.80
2023-08-29T11:48:08.532Z,0.70
2023-08-29T11:49:08.218Z,0.80
2023-08-29T11:50:08.251Z,0.90
2023-08-29T11:51:09.277Z,0.90
2023-08-29T11:52:08.202Z,0.90
2023-08-29T11:53:08.157Z,0.90
2023-08-29T11:54:08.169Z,0.80
2023-08-29T11:55:08.139Z,0.90
2023-08-29T11:56:08.145Z,0.80
2023-08-29T11:57:08.760Z,0.80
2023-08-29T11:58:08.491Z,0.80
2023-08-29T11:59:08.099Z,0.80
2023-08-29T12:00:08.197Z,0.90
2023-08-29T12:01:08.068Z,0.90
2023-08-29T12:02:08.084Z,0.70
2023-08-29T12:03:08.093Z,0.90
2023-08-29T12:04:08.061Z,0.90
2023-08-29T12:05:08.033Z,0.90
2023-08-29T12:06:08.033Z,0.80
2023-08-29T12:07:08.003Z,0.90
2023-08-29T12:08:08.209Z,0.90
2023-08-29T12:09:08.018Z,1.00
2023-08-29T12:10:07.988Z,1.00
2023-08-29T12:11:07.999Z,1.00
2023-08-29T12:12:07.978Z,1.00
2023-08-29T12:13:07.956Z,0.90
2023-08-29T12:14:07.937Z,1.00
2023-08-29T12:15:07.931Z,1.00
2023-08-29T12:16:07.914Z,1.00
2023-08-29T12:17:07.900Z,1.00
2023-08-29T12:18:08.262Z,1.00
2023-08-29T12:19:07.881Z,1.00
2023-08-29T12:20:07.963Z,1.00
2023-08-29T12:21:07.860Z,1.10
2023-08-29T12:22:07.850Z,1.00
2023-08-29T12:23:07.890Z,1.30
2023-08-29T12:24:07.866Z,1.10
2023-08-29T12:25:07.841Z,1.00
2023-08-29T12:26:07.862Z,1.10
2023-08-29T12:27:07.823Z,1.10
2023-08-29T12:28:08.046Z,1.10
2023-08-29T12:29:07.817Z,1.00
2023-08-29T12:30:07.769Z,1.10
2023-08-29T12:31:07.833Z,1.20
2023-08-29T12:32:07.739Z,1.00
2023-08-29T12:33:07.782Z,1.00
2023-08-29T12:34:07.743Z,1.10
2023-08-29T12:35:07.722Z,1.10
2023-08-29T12:36:07.723Z,1.00
2023-08-29T12:37:07.700Z,1.10
2023-08-29T12:38:08.120Z,1.10
2023-08-29T12:39:07.728Z,1.20
2023-08-29T12:40:07.684Z,1.10
2023-08-29T12:41:07.675Z,1.00
2023-08-29T12:42:07.650Z,1.00
2023-08-29T12:43:07.663Z,1.00
2023-08-29T12:44:07.634Z,1.00
2023-08-29T12:45:07.628Z,1.00
2023-08-29T12:46:07.695Z,1.00
2023-08-29T12:47:07.619Z,1.00
2023-08-29T12:48:07.732Z,1.00
2023-08-29T12:49:07.611Z,1.10
2023-08-29T12:50:07.657Z,1.00
2023-08-29T12:51:07.569Z,1.10
2023-08-29T12:52:07.571Z,1.00
2023-08-29T12:53:07.552Z,1.20
2023-08-29T12:54:07.524Z,1.10
2023-08-29T12:55:07.521Z,1.00
2023-08-29T12:56:09.281Z,1.00
2023-08-29T12:57:07.506Z,1.20
2023-08-29T12:58:08.023Z,1.20
2023-08-29T12:59:07.546Z,1.10
2023-08-29T13:00:07.571Z,1.10
2023-08-29T13:01:07.498Z,1.10
2023-08-29T13:02:07.423Z,1.10
2023-08-29T13:03:07.542Z,1.20
2023-08-29T13:04:07.497Z,1.20
2023-08-29T13:05:07.398Z,1.20
2023-08-29T13:06:07.423Z,1.30
2023-08-29T13:07:07.404Z,1.20
2023-08-29T13:08:07.539Z,1.20
2023-08-29T13:09:07.370Z,1.30
2023-08-29T13:10:07.404Z,1.20
2023-08-29T13:11:07.347Z,1.40
2023-08-29T13:12:07.377Z,1.20
2023-08-29T13:13:07.333Z,1.50
2023-08-29T13:14:07.311Z,1.20